<?xml version="1.0" encoding="UTF-8" standalone="no" ?>
<gpx xmlns="http://www.topografix.com/GPX/1/1" xmlns:xsi="http://www.w3.org/2001/XMLSchema-instance" xsi:schemaLocation="http://www.topografix.com/GPX/1/1 http://www.topografix.com/GPX/1/1/gpx.xsd" version="1.1" creator="VisuGPX - https://www.visugpx.com">
  <metadata>
    <name>Autour de Ronzière</name>
    <desc><![CDATA[Randonnée autour de Ronzière (69)]]></desc>
  </metadata>
  <wpt lat="45.85813" lon="4.43721">
    <ele>520.2</ele>
    <name><![CDATA[Ronzière]]></name>
    <type><![CDATA[ville]]></type>
  </wpt>
  <wpt lat="45.85245" lon="4.43401">
    <ele>613.6</ele>
    <name><![CDATA[Napoly]]></name>
  </wpt>
  <wpt lat="45.85953" lon="4.42377">
    <ele>613.4</ele>
    <name><![CDATA[Gonnard de Ronzière]]></name>
  </wpt>
  <wpt lat="45.86634" lon="4.42733">
    <ele>689.7</ele>
    <name><![CDATA[Croix de Ronzière]]></name>
  </wpt>
  <wpt lat="45.86863" lon="4.44506">
    <ele>642.5</ele>
    <name><![CDATA[Seconde Croix]]></name>
  </wpt>
  <wpt lat="45.85814" lon="4.43719">
    <ele>520.6</ele>
    <name><![CDATA[Ronzière]]></name>
  </wpt>
  <trk>
    <name><![CDATA[Petit tour de Ronzière]]></name>
    <extensions>
      <line xmlns="http://www.topografix.com/GPX/gpx_style/0/2">
        <color>0000FF</color>
        <width>4</width>
      </line>
    </extensions>
    <trkseg>
      <trkpt lat="45.85813" lon="4.43721">
        <ele>525</ele>
        <time>2020-05-24T11:48:03+02:00</time>
      </trkpt>
      <trkpt lat="45.85818" lon="4.43728">
        <ele>525</ele>
      </trkpt>
      <trkpt lat="45.8582" lon="4.43747">
        <ele>524</ele>
        <time>2020-05-24T11:50:58+02:00</time>
      </trkpt>
      <trkpt lat="45.85813" lon="4.43777">
        <ele>522</ele>
        <time>2020-05-24T11:51:16+02:00</time>
      </trkpt>
      <trkpt lat="45.85803" lon="4.43807">
        <ele>521</ele>
        <time>2020-05-24T11:51:37+02:00</time>
      </trkpt>
      <trkpt lat="45.85798" lon="4.43839">
        <ele>520</ele>
        <time>2020-05-24T11:51:57+02:00</time>
      </trkpt>
      <trkpt lat="45.8579" lon="4.43869">
        <ele>521</ele>
        <time>2020-05-24T11:52:19+02:00</time>
      </trkpt>
      <trkpt lat="45.85788" lon="4.43902">
        <ele>523</ele>
        <time>2020-05-24T11:52:44+02:00</time>
      </trkpt>
      <trkpt lat="45.85786" lon="4.43935">
        <ele>526</ele>
        <time>2020-05-24T11:54:00+02:00</time>
      </trkpt>
      <trkpt lat="45.85784" lon="4.43967">
        <ele>529</ele>
        <time>2020-05-24T11:54:20+02:00</time>
      </trkpt>
      <trkpt lat="45.85764" lon="4.43952">
        <ele>535</ele>
        <time>2020-05-24T11:55:11+02:00</time>
      </trkpt>
      <trkpt lat="45.85748" lon="4.43928">
        <ele>537</ele>
        <time>2020-05-24T11:55:34+02:00</time>
      </trkpt>
      <trkpt lat="45.85731" lon="4.43906">
        <ele>541</ele>
        <time>2020-05-24T11:56:15+02:00</time>
      </trkpt>
      <trkpt lat="45.85718" lon="4.43881">
        <ele>543</ele>
        <time>2020-05-24T11:56:42+02:00</time>
      </trkpt>
      <trkpt lat="45.85701" lon="4.43857">
        <ele>547</ele>
        <time>2020-05-24T11:57:21+02:00</time>
      </trkpt>
      <trkpt lat="45.85684" lon="4.43836">
        <ele>551</ele>
        <time>2020-05-24T11:57:46+02:00</time>
      </trkpt>
      <trkpt lat="45.85663" lon="4.43821">
        <ele>556</ele>
        <time>2020-05-24T11:58:23+02:00</time>
      </trkpt>
      <trkpt lat="45.85641" lon="4.43818">
        <ele>562</ele>
        <time>2020-05-24T11:59:10+02:00</time>
      </trkpt>
      <trkpt lat="45.85619" lon="4.43807">
        <ele>566</ele>
        <time>2020-05-24T11:59:41+02:00</time>
      </trkpt>
      <trkpt lat="45.85597" lon="4.43796">
        <ele>569</ele>
        <time>2020-05-24T12:00:29+02:00</time>
      </trkpt>
      <trkpt lat="45.85575" lon="4.43798">
        <ele>575</ele>
        <time>2020-05-24T12:00:55+02:00</time>
      </trkpt>
      <trkpt lat="45.85553" lon="4.43789">
        <ele>577</ele>
        <time>2020-05-24T12:01:43+02:00</time>
      </trkpt>
      <trkpt lat="45.8553" lon="4.43783">
        <ele>579</ele>
        <time>2020-05-24T12:02:10+02:00</time>
      </trkpt>
      <trkpt lat="45.85508" lon="4.43779">
        <ele>582</ele>
        <time>2020-05-24T12:02:36+02:00</time>
      </trkpt>
      <trkpt lat="45.85485" lon="4.43771">
        <ele>584</ele>
        <time>2020-05-24T12:03:03+02:00</time>
      </trkpt>
      <trkpt lat="45.85463" lon="4.43766">
        <ele>585</ele>
        <time>2020-05-24T12:04:12+02:00</time>
      </trkpt>
      <trkpt lat="45.8544" lon="4.43761">
        <ele>587</ele>
        <time>2020-05-24T12:04:37+02:00</time>
      </trkpt>
      <trkpt lat="45.85417" lon="4.43755">
        <ele>588</ele>
        <time>2020-05-24T12:05:18+02:00</time>
      </trkpt>
      <trkpt lat="45.85394" lon="4.43752">
        <ele>590</ele>
        <time>2020-05-24T12:05:45+02:00</time>
      </trkpt>
      <trkpt lat="45.85372" lon="4.43744">
        <ele>591</ele>
        <time>2020-05-24T12:06:21+02:00</time>
      </trkpt>
      <trkpt lat="45.85368" lon="4.43743">
        <ele>592.8</ele>
        <extensions>
          <visugpx:TrkExtension xmlns:visugpx="https://www.visugpx.com/editgpx/">
            <visugpx:node>7</visugpx:node>
            </visugpx:TrkExtension>
        </extensions>
      </trkpt>
      <trkpt lat="45.85349" lon="4.43737">
        <ele>592</ele>
        <time>2020-05-24T12:06:45+02:00</time>
      </trkpt>
      <trkpt lat="45.85327" lon="4.43736">
        <ele>596</ele>
        <time>2020-05-24T12:07:42+02:00</time>
      </trkpt>
      <trkpt lat="45.85304" lon="4.43731">
        <ele>600</ele>
        <time>2020-05-24T12:08:09+02:00</time>
      </trkpt>
      <trkpt lat="45.85286" lon="4.43712">
        <ele>601</ele>
        <time>2020-05-24T12:08:34+02:00</time>
      </trkpt>
      <trkpt lat="45.85273" lon="4.43686">
        <ele>600</ele>
        <time>2020-05-24T12:08:59+02:00</time>
      </trkpt>
      <trkpt lat="45.85257" lon="4.43662">
        <ele>601</ele>
        <time>2020-05-24T12:09:23+02:00</time>
      </trkpt>
      <trkpt lat="45.85246" lon="4.43632">
        <ele>603</ele>
        <time>2020-05-24T12:09:56+02:00</time>
      </trkpt>
      <trkpt lat="45.85247" lon="4.43599">
        <ele>603</ele>
        <time>2020-05-24T12:10:21+02:00</time>
      </trkpt>
      <trkpt lat="45.8525" lon="4.43566">
        <ele>603</ele>
        <time>2020-05-24T12:10:48+02:00</time>
      </trkpt>
      <trkpt lat="45.85248" lon="4.43533">
        <ele>604</ele>
        <time>2020-05-24T12:11:13+02:00</time>
      </trkpt>
      <trkpt lat="45.85245" lon="4.435">
        <ele>607</ele>
        <time>2020-05-24T12:11:44+02:00</time>
      </trkpt>
      <trkpt lat="45.85246" lon="4.43467">
        <ele>608</ele>
        <time>2020-05-24T12:12:05+02:00</time>
      </trkpt>
      <trkpt lat="45.85243" lon="4.43434">
        <ele>611</ele>
        <time>2020-05-24T12:12:28+02:00</time>
      </trkpt>
      <trkpt lat="45.85245" lon="4.43401">
        <ele>611</ele>
        <time>2020-05-24T12:13:03+02:00</time>
      </trkpt>
      <trkpt lat="45.85247" lon="4.43368">
        <ele>610</ele>
        <time>2020-05-24T12:13:58+02:00</time>
      </trkpt>
      <trkpt lat="45.85255" lon="4.43338">
        <ele>608</ele>
        <time>2020-05-24T12:15:22+02:00</time>
      </trkpt>
      <trkpt lat="45.85253" lon="4.43306">
        <ele>610</ele>
        <time>2020-05-24T12:15:41+02:00</time>
      </trkpt>
      <trkpt lat="45.85254" lon="4.43273">
        <ele>611</ele>
        <time>2020-05-24T12:17:03+02:00</time>
      </trkpt>
      <trkpt lat="45.85255" lon="4.4324">
        <ele>612</ele>
        <time>2020-05-24T12:17:24+02:00</time>
      </trkpt>
      <trkpt lat="45.85255" lon="4.43208">
        <ele>615</ele>
        <time>2020-05-24T12:17:45+02:00</time>
      </trkpt>
      <trkpt lat="45.85266" lon="4.43179">
        <ele>616</ele>
        <time>2020-05-24T12:18:10+02:00</time>
      </trkpt>
      <trkpt lat="45.85287" lon="4.43165">
        <ele>616</ele>
        <time>2020-05-24T12:18:32+02:00</time>
      </trkpt>
      <trkpt lat="45.85308" lon="4.43152">
        <ele>617</ele>
        <time>2020-05-24T12:18:59+02:00</time>
      </trkpt>
      <trkpt lat="45.85332" lon="4.4315">
        <ele>615</ele>
        <time>2020-05-24T12:19:21+02:00</time>
      </trkpt>
      <trkpt lat="45.85353" lon="4.4316">
        <ele>617</ele>
        <time>2020-05-24T12:19:42+02:00</time>
      </trkpt>
      <trkpt lat="45.85372" lon="4.4318">
        <ele>617</ele>
        <time>2020-05-24T12:20:10+02:00</time>
      </trkpt>
      <trkpt lat="45.85393" lon="4.43195">
        <ele>617</ele>
        <time>2020-05-24T12:20:35+02:00</time>
      </trkpt>
      <trkpt lat="45.85413" lon="4.43213">
        <ele>615</ele>
        <time>2020-05-24T12:21:00+02:00</time>
      </trkpt>
      <trkpt lat="45.85434" lon="4.43226">
        <ele>616</ele>
        <time>2020-05-24T12:21:25+02:00</time>
      </trkpt>
      <trkpt lat="45.85456" lon="4.43237">
        <ele>618</ele>
        <time>2020-05-24T12:21:52+02:00</time>
      </trkpt>
      <trkpt lat="45.85479" lon="4.43242">
        <ele>622</ele>
        <time>2020-05-24T12:22:16+02:00</time>
      </trkpt>
      <trkpt lat="45.85499" lon="4.43258">
        <ele>622</ele>
        <time>2020-05-24T12:23:06+02:00</time>
      </trkpt>
      <trkpt lat="45.85522" lon="4.4326">
        <ele>622</ele>
        <time>2020-05-24T12:23:26+02:00</time>
      </trkpt>
      <trkpt lat="45.85544" lon="4.43274">
        <ele>620</ele>
        <time>2020-05-24T12:24:04+02:00</time>
      </trkpt>
      <trkpt lat="45.85566" lon="4.43281">
        <ele>619</ele>
        <time>2020-05-24T12:24:22+02:00</time>
      </trkpt>
      <trkpt lat="45.85587" lon="4.43294">
        <ele>617</ele>
        <time>2020-05-24T12:24:44+02:00</time>
      </trkpt>
      <trkpt lat="45.85608" lon="4.43307">
        <ele>614</ele>
        <time>2020-05-24T12:25:10+02:00</time>
      </trkpt>
      <trkpt lat="45.8563" lon="4.43296">
        <ele>614</ele>
        <time>2020-05-24T12:25:30+02:00</time>
      </trkpt>
      <trkpt lat="45.8565" lon="4.43279">
        <ele>614</ele>
        <time>2020-05-24T12:26:02+02:00</time>
      </trkpt>
      <trkpt lat="45.85665" lon="4.43254">
        <ele>615</ele>
        <time>2020-05-24T12:26:20+02:00</time>
      </trkpt>
      <trkpt lat="45.85678" lon="4.43227">
        <ele>614</ele>
        <time>2020-05-24T12:26:41+02:00</time>
      </trkpt>
      <trkpt lat="45.8569" lon="4.43199">
        <ele>613</ele>
        <time>2020-05-24T12:27:00+02:00</time>
      </trkpt>
      <trkpt lat="45.85703" lon="4.43171">
        <ele>611</ele>
        <time>2020-05-24T12:27:23+02:00</time>
      </trkpt>
      <trkpt lat="45.8571" lon="4.43141">
        <ele>613</ele>
        <time>2020-05-24T12:27:45+02:00</time>
      </trkpt>
      <trkpt lat="45.85724" lon="4.43116">
        <ele>610</ele>
        <time>2020-05-24T12:29:11+02:00</time>
      </trkpt>
      <trkpt lat="45.85731" lon="4.43084">
        <ele>611</ele>
        <time>2020-05-24T12:29:46+02:00</time>
      </trkpt>
      <trkpt lat="45.85741" lon="4.43054">
        <ele>610</ele>
        <time>2020-05-24T12:30:10+02:00</time>
      </trkpt>
      <trkpt lat="45.85749" lon="4.43023">
        <ele>609</ele>
        <time>2020-05-24T12:30:37+02:00</time>
      </trkpt>
      <trkpt lat="45.85759" lon="4.42993">
        <ele>610</ele>
        <time>2020-05-24T12:31:00+02:00</time>
      </trkpt>
      <trkpt lat="45.85775" lon="4.42969">
        <ele>609</ele>
        <time>2020-05-24T12:31:24+02:00</time>
      </trkpt>
      <trkpt lat="45.85793" lon="4.42949">
        <ele>607</ele>
        <time>2020-05-24T12:31:55+02:00</time>
      </trkpt>
      <trkpt lat="45.85804" lon="4.4292">
        <ele>609</ele>
        <time>2020-05-24T12:32:21+02:00</time>
      </trkpt>
      <trkpt lat="45.85815" lon="4.42891">
        <ele>610</ele>
        <time>2020-05-24T12:32:46+02:00</time>
      </trkpt>
      <trkpt lat="45.8583" lon="4.42867">
        <ele>609</ele>
        <time>2020-05-24T12:33:13+02:00</time>
      </trkpt>
      <trkpt lat="45.85841" lon="4.42839">
        <ele>608</ele>
        <time>2020-05-24T12:33:37+02:00</time>
      </trkpt>
      <trkpt lat="45.8585" lon="4.42808">
        <ele>610</ele>
        <time>2020-05-24T12:33:59+02:00</time>
      </trkpt>
      <trkpt lat="45.85861" lon="4.42781">
        <ele>610</ele>
        <time>2020-05-24T12:34:21+02:00</time>
      </trkpt>
      <trkpt lat="45.85869" lon="4.4275">
        <ele>611</ele>
        <time>2020-05-24T12:34:42+02:00</time>
      </trkpt>
      <trkpt lat="45.85879" lon="4.4272">
        <ele>609</ele>
        <time>2020-05-24T12:35:11+02:00</time>
      </trkpt>
      <trkpt lat="45.85883" lon="4.42687">
        <ele>608</ele>
        <time>2020-05-24T12:35:31+02:00</time>
      </trkpt>
      <trkpt lat="45.85887" lon="4.42654">
        <ele>607</ele>
        <time>2020-05-24T12:36:10+02:00</time>
      </trkpt>
      <trkpt lat="45.8589" lon="4.42621">
        <ele>606</ele>
        <time>2020-05-24T12:36:29+02:00</time>
      </trkpt>
      <trkpt lat="45.85893" lon="4.42589">
        <ele>606</ele>
        <time>2020-05-24T12:36:52+02:00</time>
      </trkpt>
      <trkpt lat="45.8589" lon="4.42556">
        <ele>607</ele>
        <time>2020-05-24T12:37:12+02:00</time>
      </trkpt>
      <trkpt lat="45.85887" lon="4.42524">
        <ele>608</ele>
        <time>2020-05-24T12:37:37+02:00</time>
      </trkpt>
      <trkpt lat="45.85883" lon="4.42492">
        <ele>609</ele>
        <time>2020-05-24T12:37:59+02:00</time>
      </trkpt>
      <trkpt lat="45.85877" lon="4.4246">
        <ele>611</ele>
        <time>2020-05-24T12:38:23+02:00</time>
      </trkpt>
      <trkpt lat="45.85869" lon="4.42429">
        <ele>613</ele>
        <time>2020-05-24T12:38:47+02:00</time>
      </trkpt>
      <trkpt lat="45.8587" lon="4.42396">
        <ele>614</ele>
        <time>2020-05-24T13:10:41+02:00</time>
      </trkpt>
      <trkpt lat="45.8587" lon="4.42363">
        <ele>616</ele>
        <time>2020-05-24T13:11:09+02:00</time>
      </trkpt>
      <trkpt lat="45.8587" lon="4.4233">
        <ele>618</ele>
        <time>2020-05-24T13:11:28+02:00</time>
      </trkpt>
      <trkpt lat="45.85869" lon="4.42298">
        <ele>619</ele>
        <time>2020-05-24T13:11:52+02:00</time>
      </trkpt>
      <trkpt lat="45.85878" lon="4.42267">
        <ele>619</ele>
        <time>2020-05-24T13:12:08+02:00</time>
      </trkpt>
      <trkpt lat="45.85885" lon="4.42235">
        <ele>622</ele>
        <time>2020-05-24T13:12:29+02:00</time>
      </trkpt>
      <trkpt lat="45.85901" lon="4.42214">
        <ele>623</ele>
        <time>2020-05-24T13:12:49+02:00</time>
      </trkpt>
      <trkpt lat="45.85922" lon="4.42229">
        <ele>621</ele>
        <time>2020-05-24T13:13:11+02:00</time>
      </trkpt>
      <trkpt lat="45.85931" lon="4.42259">
        <ele>620</ele>
        <time>2020-05-24T13:13:41+02:00</time>
      </trkpt>
      <trkpt lat="45.85948" lon="4.42281">
        <ele>623</ele>
        <time>2020-05-24T13:14:00+02:00</time>
      </trkpt>
      <trkpt lat="45.85943" lon="4.42313">
        <ele>618</ele>
        <time>2020-05-24T13:14:34+02:00</time>
      </trkpt>
      <trkpt lat="45.85945" lon="4.42346">
        <ele>616</ele>
        <time>2020-05-24T13:14:58+02:00</time>
      </trkpt>
      <trkpt lat="45.85953" lon="4.42377">
        <ele>616</ele>
        <time>2020-05-24T13:15:19+02:00</time>
      </trkpt>
      <trkpt lat="45.85978" lon="4.42422">
        <ele>617</ele>
        <time>2020-05-24T13:34:41+02:00</time>
      </trkpt>
      <trkpt lat="45.85998" lon="4.42439">
        <ele>619</ele>
        <time>2020-05-24T13:35:05+02:00</time>
      </trkpt>
      <trkpt lat="45.86015" lon="4.42462">
        <ele>621</ele>
        <time>2020-05-24T13:35:41+02:00</time>
      </trkpt>
      <trkpt lat="45.86036" lon="4.42473">
        <ele>627</ele>
        <time>2020-05-24T13:36:13+02:00</time>
      </trkpt>
      <trkpt lat="45.86055" lon="4.42493">
        <ele>631</ele>
        <time>2020-05-24T13:36:54+02:00</time>
      </trkpt>
      <trkpt lat="45.86071" lon="4.42515">
        <ele>633</ele>
        <time>2020-05-24T13:37:29+02:00</time>
      </trkpt>
      <trkpt lat="45.86092" lon="4.4253">
        <ele>636</ele>
        <time>2020-05-24T13:37:58+02:00</time>
      </trkpt>
      <trkpt lat="45.86113" lon="4.42545">
        <ele>636</ele>
        <time>2020-05-24T13:38:26+02:00</time>
      </trkpt>
      <trkpt lat="45.86136" lon="4.42545">
        <ele>639</ele>
        <time>2020-05-24T13:39:12+02:00</time>
      </trkpt>
      <trkpt lat="45.86157" lon="4.42535">
        <ele>645</ele>
        <time>2020-05-24T13:39:44+02:00</time>
      </trkpt>
      <trkpt lat="45.86179" lon="4.42522">
        <ele>651</ele>
        <time>2020-05-24T13:41:28+02:00</time>
      </trkpt>
      <trkpt lat="45.86201" lon="4.42516">
        <ele>656</ele>
        <time>2020-05-24T13:42:13+02:00</time>
      </trkpt>
      <trkpt lat="45.86225" lon="4.42512">
        <ele>660</ele>
        <time>2020-05-24T13:42:40+02:00</time>
      </trkpt>
      <trkpt lat="45.86247" lon="4.4252">
        <ele>663</ele>
        <time>2020-05-24T13:43:08+02:00</time>
      </trkpt>
      <trkpt lat="45.86268" lon="4.42532">
        <ele>666</ele>
        <time>2020-05-24T13:43:39+02:00</time>
      </trkpt>
      <trkpt lat="45.86284" lon="4.42555">
        <ele>667</ele>
        <time>2020-05-24T13:44:10+02:00</time>
      </trkpt>
      <trkpt lat="45.86303" lon="4.42573">
        <ele>669</ele>
        <time>2020-05-24T13:44:37+02:00</time>
      </trkpt>
      <trkpt lat="45.86322" lon="4.42592">
        <ele>671</ele>
        <time>2020-05-24T13:45:14+02:00</time>
      </trkpt>
      <trkpt lat="45.86339" lon="4.42613">
        <ele>672</ele>
        <time>2020-05-24T13:45:54+02:00</time>
      </trkpt>
      <trkpt lat="45.86358" lon="4.42632">
        <ele>671</ele>
        <time>2020-05-24T13:46:44+02:00</time>
      </trkpt>
      <trkpt lat="45.8638" lon="4.42629">
        <ele>675</ele>
        <time>2020-05-24T13:59:56+02:00</time>
      </trkpt>
      <trkpt lat="45.86401" lon="4.42618">
        <ele>681</ele>
        <time>2020-05-24T14:00:42+02:00</time>
      </trkpt>
      <trkpt lat="45.86423" lon="4.4261">
        <ele>686</ele>
        <time>2020-05-24T14:01:11+02:00</time>
      </trkpt>
      <trkpt lat="45.86447" lon="4.42612">
        <ele>689</ele>
        <time>2020-05-24T14:01:39+02:00</time>
      </trkpt>
      <trkpt lat="45.8647" lon="4.42619">
        <ele>690</ele>
        <time>2020-05-24T14:02:02+02:00</time>
      </trkpt>
      <trkpt lat="45.86491" lon="4.42631">
        <ele>690</ele>
        <time>2020-05-24T14:02:26+02:00</time>
      </trkpt>
      <trkpt lat="45.8651" lon="4.42651">
        <ele>687</ele>
        <time>2020-05-24T14:02:49+02:00</time>
      </trkpt>
      <trkpt lat="45.86529" lon="4.42669">
        <ele>685</ele>
        <time>2020-05-24T14:03:15+02:00</time>
      </trkpt>
      <trkpt lat="45.86548" lon="4.42689">
        <ele>685</ele>
        <time>2020-05-24T14:03:40+02:00</time>
      </trkpt>
      <trkpt lat="45.86568" lon="4.42706">
        <ele>686</ele>
        <time>2020-05-24T14:04:05+02:00</time>
      </trkpt>
      <trkpt lat="45.86589" lon="4.42718">
        <ele>687</ele>
        <time>2020-05-24T14:04:34+02:00</time>
      </trkpt>
      <trkpt lat="45.86611" lon="4.42728">
        <ele>685</ele>
        <time>2020-05-24T14:05:00+02:00</time>
      </trkpt>
      <trkpt lat="45.86634" lon="4.42733">
        <ele>685</ele>
        <time>2020-05-24T14:07:01+02:00</time>
      </trkpt>
      <trkpt lat="45.86645" lon="4.42763">
        <ele>685</ele>
        <time>2020-05-24T14:07:38+02:00</time>
      </trkpt>
      <trkpt lat="45.86645" lon="4.42797">
        <ele>686</ele>
        <time>2020-05-24T14:07:59+02:00</time>
      </trkpt>
      <trkpt lat="45.86641" lon="4.42829">
        <ele>686</ele>
        <time>2020-05-24T14:08:21+02:00</time>
      </trkpt>
      <trkpt lat="45.86638" lon="4.42862">
        <ele>687</ele>
        <time>2020-05-24T14:08:48+02:00</time>
      </trkpt>
      <trkpt lat="45.86632" lon="4.42893">
        <ele>686</ele>
        <time>2020-05-24T14:09:12+02:00</time>
      </trkpt>
      <trkpt lat="45.86628" lon="4.42925">
        <ele>686</ele>
        <time>2020-05-24T14:09:35+02:00</time>
      </trkpt>
      <trkpt lat="45.86624" lon="4.42958">
        <ele>687</ele>
        <time>2020-05-24T14:10:06+02:00</time>
      </trkpt>
      <trkpt lat="45.86622" lon="4.42991">
        <ele>688</ele>
        <time>2020-05-24T14:10:34+02:00</time>
      </trkpt>
      <trkpt lat="45.8662" lon="4.43024">
        <ele>689</ele>
        <time>2020-05-24T14:10:57+02:00</time>
      </trkpt>
      <trkpt lat="45.86623" lon="4.43057">
        <ele>690</ele>
        <time>2020-05-24T14:11:27+02:00</time>
      </trkpt>
      <trkpt lat="45.86618" lon="4.43089">
        <ele>689</ele>
        <time>2020-05-24T14:11:53+02:00</time>
      </trkpt>
      <trkpt lat="45.86613" lon="4.43121">
        <ele>688</ele>
        <time>2020-05-24T14:12:29+02:00</time>
      </trkpt>
      <trkpt lat="45.86609" lon="4.43153">
        <ele>688</ele>
        <time>2020-05-24T14:12:54+02:00</time>
      </trkpt>
      <trkpt lat="45.86605" lon="4.43186">
        <ele>687</ele>
        <time>2020-05-24T14:13:22+02:00</time>
      </trkpt>
      <trkpt lat="45.86607" lon="4.43219">
        <ele>687</ele>
        <time>2020-05-24T14:13:46+02:00</time>
      </trkpt>
      <trkpt lat="45.86615" lon="4.4325">
        <ele>686</ele>
        <time>2020-05-24T14:14:11+02:00</time>
      </trkpt>
      <trkpt lat="45.86628" lon="4.43277">
        <ele>687</ele>
        <time>2020-05-24T14:14:35+02:00</time>
      </trkpt>
      <trkpt lat="45.86636" lon="4.43308">
        <ele>686</ele>
        <time>2020-05-24T14:15:29+02:00</time>
      </trkpt>
      <trkpt lat="45.86644" lon="4.43339">
        <ele>687</ele>
        <time>2020-05-24T14:15:54+02:00</time>
      </trkpt>
      <trkpt lat="45.86656" lon="4.43365">
        <ele>690</ele>
        <time>2020-05-24T14:16:15+02:00</time>
      </trkpt>
      <trkpt lat="45.86666" lon="4.43395">
        <ele>693</ele>
        <time>2020-05-24T14:16:39+02:00</time>
      </trkpt>
      <trkpt lat="45.86676" lon="4.43425">
        <ele>694</ele>
        <time>2020-05-24T14:17:03+02:00</time>
      </trkpt>
      <trkpt lat="45.86682" lon="4.43457">
        <ele>697</ele>
        <time>2020-05-24T14:17:28+02:00</time>
      </trkpt>
      <trkpt lat="45.86692" lon="4.43487">
        <ele>698</ele>
        <time>2020-05-24T14:17:51+02:00</time>
      </trkpt>
      <trkpt lat="45.86703" lon="4.43515">
        <ele>699</ele>
        <time>2020-05-24T14:18:39+02:00</time>
      </trkpt>
      <trkpt lat="45.86714" lon="4.43544">
        <ele>699</ele>
        <time>2020-05-24T14:19:03+02:00</time>
      </trkpt>
      <trkpt lat="45.86727" lon="4.43571">
        <ele>698</ele>
        <time>2020-05-24T14:19:27+02:00</time>
      </trkpt>
      <trkpt lat="45.86736" lon="4.43601">
        <ele>697</ele>
        <time>2020-05-24T14:19:49+02:00</time>
      </trkpt>
      <trkpt lat="45.86738" lon="4.43634">
        <ele>696</ele>
        <time>2020-05-24T14:20:56+02:00</time>
      </trkpt>
      <trkpt lat="45.86738" lon="4.43667">
        <ele>695</ele>
        <time>2020-05-24T14:21:24+02:00</time>
      </trkpt>
      <trkpt lat="45.8673" lon="4.43699">
        <ele>694</ele>
        <time>2020-05-24T14:22:01+02:00</time>
      </trkpt>
      <trkpt lat="45.86724" lon="4.4373">
        <ele>693</ele>
        <time>2020-05-24T14:22:26+02:00</time>
      </trkpt>
      <trkpt lat="45.86712" lon="4.43758">
        <ele>694</ele>
        <time>2020-05-24T14:22:53+02:00</time>
      </trkpt>
      <trkpt lat="45.86695" lon="4.43781">
        <ele>698</ele>
        <time>2020-05-24T14:23:18+02:00</time>
      </trkpt>
      <trkpt lat="45.86687" lon="4.43812">
        <ele>698</ele>
        <time>2020-05-24T14:23:39+02:00</time>
      </trkpt>
      <trkpt lat="45.86684" lon="4.43846">
        <ele>696</ele>
        <time>2020-05-24T14:24:27+02:00</time>
      </trkpt>
      <trkpt lat="45.86683" lon="4.43879">
        <ele>694</ele>
        <time>2020-05-24T14:24:50+02:00</time>
      </trkpt>
      <trkpt lat="45.86682" lon="4.43913">
        <ele>692</ele>
        <time>2020-05-24T14:25:14+02:00</time>
      </trkpt>
      <trkpt lat="45.86682" lon="4.43945">
        <ele>690</ele>
        <time>2020-05-24T14:25:40+02:00</time>
      </trkpt>
      <trkpt lat="45.8669" lon="4.43976">
        <ele>687</ele>
        <time>2020-05-24T14:26:15+02:00</time>
      </trkpt>
      <trkpt lat="45.86695" lon="4.44009">
        <ele>685</ele>
        <time>2020-05-24T14:26:36+02:00</time>
      </trkpt>
      <trkpt lat="45.86704" lon="4.44039">
        <ele>682</ele>
        <time>2020-05-24T14:26:57+02:00</time>
      </trkpt>
      <trkpt lat="45.8671" lon="4.44071">
        <ele>681</ele>
        <time>2020-05-24T14:27:19+02:00</time>
      </trkpt>
      <trkpt lat="45.8672" lon="4.44101">
        <ele>680</ele>
        <time>2020-05-24T14:27:42+02:00</time>
      </trkpt>
      <trkpt lat="45.86732" lon="4.44129">
        <ele>679</ele>
        <time>2020-05-24T14:28:29+02:00</time>
      </trkpt>
      <trkpt lat="45.86743" lon="4.44157">
        <ele>679</ele>
        <time>2020-05-24T14:28:54+02:00</time>
      </trkpt>
      <trkpt lat="45.86752" lon="4.44188">
        <ele>677</ele>
        <time>2020-05-24T14:29:24+02:00</time>
      </trkpt>
      <trkpt lat="45.86762" lon="4.44217">
        <ele>674</ele>
        <time>2020-05-24T14:29:48+02:00</time>
      </trkpt>
      <trkpt lat="45.86768" lon="4.44248">
        <ele>673</ele>
        <time>2020-05-24T14:30:14+02:00</time>
      </trkpt>
      <trkpt lat="45.86775" lon="4.44279">
        <ele>667</ele>
        <time>2020-05-24T14:30:47+02:00</time>
      </trkpt>
      <trkpt lat="45.8678" lon="4.44311">
        <ele>663</ele>
        <time>2020-05-24T14:31:15+02:00</time>
      </trkpt>
      <trkpt lat="45.86795" lon="4.44336">
        <ele>660</ele>
        <time>2020-05-24T14:31:55+02:00</time>
      </trkpt>
      <trkpt lat="45.86804" lon="4.44366">
        <ele>657</ele>
        <time>2020-05-24T14:32:22+02:00</time>
      </trkpt>
      <trkpt lat="45.86817" lon="4.44393">
        <ele>655</ele>
        <time>2020-05-24T14:32:50+02:00</time>
      </trkpt>
      <trkpt lat="45.86829" lon="4.44421">
        <ele>654</ele>
        <time>2020-05-24T14:33:11+02:00</time>
      </trkpt>
      <trkpt lat="45.86843" lon="4.44449">
        <ele>652</ele>
        <time>2020-05-24T14:33:36+02:00</time>
      </trkpt>
      <trkpt lat="45.86857" lon="4.44475">
        <ele>651</ele>
        <time>2020-05-24T14:34:04+02:00</time>
        <extensions>
          <visugpx:TrkExtension xmlns:visugpx="https://www.visugpx.com/editgpx/">
            <visugpx:node>2</visugpx:node>
            </visugpx:TrkExtension>
        </extensions>
      </trkpt>
      <trkpt lat="45.86854" lon="4.44483">
        <ele>644.6</ele>
      </trkpt>
      <trkpt lat="45.86865" lon="4.44514">
        <ele>641.6</ele>
      </trkpt>
      <trkpt lat="45.86897" lon="4.44606">
        <ele>635.1</ele>
      </trkpt>
      <trkpt lat="45.86903" lon="4.44625">
        <ele>634.1</ele>
      </trkpt>
      <trkpt lat="45.86908" lon="4.44636">
        <ele>633.9</ele>
      </trkpt>
      <trkpt lat="45.86916" lon="4.44659">
        <ele>633.6</ele>
      </trkpt>
      <trkpt lat="45.86926" lon="4.44694">
        <ele>630.8</ele>
      </trkpt>
      <trkpt lat="45.86931" lon="4.44708">
        <ele>629.9</ele>
      </trkpt>
      <trkpt lat="45.86949" lon="4.44777">
        <ele>625.9</ele>
      </trkpt>
      <trkpt lat="45.86953" lon="4.44799">
        <ele>624.8</ele>
      </trkpt>
      <trkpt lat="45.86958" lon="4.44822">
        <ele>624.1</ele>
      </trkpt>
      <trkpt lat="45.86983" lon="4.44921">
        <ele>620.9</ele>
      </trkpt>
      <trkpt lat="45.86987" lon="4.44935">
        <ele>620.3</ele>
      </trkpt>
      <trkpt lat="45.86999" lon="4.44963">
        <ele>620.2</ele>
      </trkpt>
      <trkpt lat="45.87005" lon="4.44982">
        <ele>619.5</ele>
      </trkpt>
      <trkpt lat="45.8701" lon="4.45003">
        <ele>618.9</ele>
      </trkpt>
      <trkpt lat="45.87018" lon="4.45026">
        <ele>618.7</ele>
      </trkpt>
      <trkpt lat="45.8702" lon="4.45037">
        <ele>618.5</ele>
      </trkpt>
      <trkpt lat="45.87021" lon="4.4506">
        <ele>618.2</ele>
      </trkpt>
      <trkpt lat="45.87019" lon="4.45076">
        <ele>617.8</ele>
      </trkpt>
      <trkpt lat="45.87017" lon="4.45089">
        <ele>617.5</ele>
      </trkpt>
      <trkpt lat="45.87011" lon="4.45116">
        <ele>616.4</ele>
      </trkpt>
      <trkpt lat="45.86983" lon="4.45217">
        <ele>612</ele>
      </trkpt>
      <trkpt lat="45.86979" lon="4.45238">
        <ele>611</ele>
      </trkpt>
      <trkpt lat="45.86977" lon="4.45253">
        <ele>610.3</ele>
      </trkpt>
      <trkpt lat="45.86977" lon="4.45277">
        <ele>609.4</ele>
      </trkpt>
      <trkpt lat="45.86978" lon="4.45289">
        <ele>608.9</ele>
      </trkpt>
      <trkpt lat="45.86977" lon="4.45331">
        <ele>606.5</ele>
      </trkpt>
      <trkpt lat="45.86977" lon="4.4535">
        <ele>605.2</ele>
      </trkpt>
      <trkpt lat="45.86979" lon="4.45373">
        <ele>604</ele>
      </trkpt>
      <trkpt lat="45.86982" lon="4.45399">
        <ele>602.6</ele>
      </trkpt>
      <trkpt lat="45.86984" lon="4.45426">
        <ele>600.7</ele>
      </trkpt>
      <trkpt lat="45.86987" lon="4.45439">
        <ele>600.2</ele>
      </trkpt>
      <trkpt lat="45.86992" lon="4.45451">
        <ele>599.9</ele>
      </trkpt>
      <trkpt lat="45.86995" lon="4.45457">
        <ele>599.7</ele>
      </trkpt>
      <trkpt lat="45.87001" lon="4.45465">
        <ele>599.9</ele>
      </trkpt>
      <trkpt lat="45.87029" lon="4.45493">
        <ele>597.9</ele>
      </trkpt>
      <trkpt lat="45.87051" lon="4.45521">
        <ele>591.5</ele>
      </trkpt>
      <trkpt lat="45.87057" lon="4.45531">
        <ele>589.3</ele>
      </trkpt>
      <trkpt lat="45.87061" lon="4.4554">
        <ele>587.6</ele>
      </trkpt>
      <trkpt lat="45.87065" lon="4.4555">
        <ele>586</ele>
      </trkpt>
      <trkpt lat="45.87068" lon="4.45564">
        <ele>584.5</ele>
      </trkpt>
      <trkpt lat="45.87074" lon="4.45604">
        <ele>582.2</ele>
      </trkpt>
      <trkpt lat="45.87081" lon="4.45638">
        <ele>581.9</ele>
      </trkpt>
      <trkpt lat="45.87086" lon="4.45666">
        <ele>580.6</ele>
      </trkpt>
      <trkpt lat="45.87087" lon="4.45678">
        <ele>579.8</ele>
      </trkpt>
      <trkpt lat="45.87087" lon="4.4568">
        <ele>579.6</ele>
        <extensions>
          <visugpx:TrkExtension xmlns:visugpx="https://www.visugpx.com/editgpx/">
            <visugpx:node>3</visugpx:node>
            </visugpx:TrkExtension>
        </extensions>
      </trkpt>
      <trkpt lat="45.87088" lon="4.45688">
        <ele>579.1</ele>
      </trkpt>
      <trkpt lat="45.87084" lon="4.45705">
        <ele>578.2</ele>
      </trkpt>
      <trkpt lat="45.87079" lon="4.45729">
        <ele>576.4</ele>
      </trkpt>
      <trkpt lat="45.87075" lon="4.45764">
        <ele>574</ele>
      </trkpt>
      <trkpt lat="45.87073" lon="4.45776">
        <ele>572.9</ele>
      </trkpt>
      <trkpt lat="45.87067" lon="4.45799">
        <ele>570.6</ele>
      </trkpt>
      <trkpt lat="45.87054" lon="4.45853">
        <ele>568.2</ele>
      </trkpt>
      <trkpt lat="45.8705" lon="4.45865">
        <ele>567.5</ele>
      </trkpt>
      <trkpt lat="45.87043" lon="4.45875">
        <ele>565.9</ele>
      </trkpt>
      <trkpt lat="45.87038" lon="4.45885">
        <ele>565</ele>
      </trkpt>
      <trkpt lat="45.87028" lon="4.45898">
        <ele>562.7</ele>
      </trkpt>
      <trkpt lat="45.87018" lon="4.45907">
        <ele>560.4</ele>
      </trkpt>
      <trkpt lat="45.86991" lon="4.45926">
        <ele>555.4</ele>
      </trkpt>
      <trkpt lat="45.86976" lon="4.45933">
        <ele>553.2</ele>
      </trkpt>
      <trkpt lat="45.8697" lon="4.45933">
        <ele>551.9</ele>
      </trkpt>
      <trkpt lat="45.86955" lon="4.45928">
        <ele>548.3</ele>
      </trkpt>
      <trkpt lat="45.86946" lon="4.45928">
        <ele>546.5</ele>
      </trkpt>
      <trkpt lat="45.86938" lon="4.4593">
        <ele>544.7</ele>
      </trkpt>
      <trkpt lat="45.8692" lon="4.45938">
        <ele>540.9</ele>
      </trkpt>
      <trkpt lat="45.86896" lon="4.45951">
        <ele>536</ele>
      </trkpt>
      <trkpt lat="45.86876" lon="4.45964">
        <ele>532.2</ele>
      </trkpt>
      <trkpt lat="45.86863" lon="4.45975">
        <ele>529.8</ele>
      </trkpt>
      <trkpt lat="45.86852" lon="4.45989">
        <ele>527.3</ele>
      </trkpt>
      <trkpt lat="45.86834" lon="4.46015">
        <ele>523.3</ele>
      </trkpt>
      <trkpt lat="45.86814" lon="4.46046">
        <ele>518.2</ele>
      </trkpt>
      <trkpt lat="45.86806" lon="4.46059">
        <ele>516.2</ele>
      </trkpt>
      <trkpt lat="45.86802" lon="4.46068">
        <ele>515.6</ele>
      </trkpt>
      <trkpt lat="45.86798" lon="4.46108">
        <ele>513.6</ele>
      </trkpt>
      <trkpt lat="45.86796" lon="4.46114">
        <ele>512.8</ele>
      </trkpt>
      <trkpt lat="45.86793" lon="4.46119">
        <ele>512</ele>
      </trkpt>
      <trkpt lat="45.8679" lon="4.4612">
        <ele>511.4</ele>
      </trkpt>
      <trkpt lat="45.86787" lon="4.46119">
        <ele>510.8</ele>
      </trkpt>
      <trkpt lat="45.86762" lon="4.46102">
        <ele>506.5</ele>
      </trkpt>
      <trkpt lat="45.86754" lon="4.46099">
        <ele>505.2</ele>
      </trkpt>
      <trkpt lat="45.86748" lon="4.46096">
        <ele>504</ele>
      </trkpt>
      <trkpt lat="45.8674" lon="4.46088">
        <ele>502.1</ele>
      </trkpt>
      <trkpt lat="45.86736" lon="4.46082">
        <ele>500.9</ele>
      </trkpt>
      <trkpt lat="45.86735" lon="4.46075">
        <ele>500.5</ele>
      </trkpt>
      <trkpt lat="45.86734" lon="4.46066">
        <ele>500.1</ele>
      </trkpt>
      <trkpt lat="45.86732" lon="4.46061">
        <ele>499.5</ele>
      </trkpt>
      <trkpt lat="45.8673" lon="4.46058">
        <ele>499</ele>
      </trkpt>
      <trkpt lat="45.86726" lon="4.46057">
        <ele>498</ele>
      </trkpt>
      <trkpt lat="45.86722" lon="4.46059">
        <ele>496.9</ele>
      </trkpt>
      <trkpt lat="45.86714" lon="4.4607">
        <ele>494.6</ele>
      </trkpt>
      <trkpt lat="45.86705" lon="4.46084">
        <ele>492.7</ele>
      </trkpt>
      <trkpt lat="45.86698" lon="4.46094">
        <ele>491.6</ele>
      </trkpt>
      <trkpt lat="45.86689" lon="4.46099">
        <ele>490.3</ele>
      </trkpt>
      <trkpt lat="45.86684" lon="4.461">
        <ele>489.5</ele>
      </trkpt>
      <trkpt lat="45.86678" lon="4.46098">
        <ele>488.4</ele>
      </trkpt>
      <trkpt lat="45.86669" lon="4.46094">
        <ele>486.5</ele>
      </trkpt>
      <trkpt lat="45.86661" lon="4.46088">
        <ele>484.7</ele>
      </trkpt>
      <trkpt lat="45.86625" lon="4.46062">
        <ele>477.5</ele>
      </trkpt>
      <trkpt lat="45.86619" lon="4.46059">
        <ele>476.4</ele>
      </trkpt>
      <trkpt lat="45.86612" lon="4.46062">
        <ele>475.6</ele>
      </trkpt>
      <trkpt lat="45.86603" lon="4.46063">
        <ele>474.5</ele>
      </trkpt>
      <trkpt lat="45.86596" lon="4.46062">
        <ele>473.5</ele>
        <extensions>
          <visugpx:TrkExtension xmlns:visugpx="https://www.visugpx.com/editgpx/">
            <visugpx:node>4</visugpx:node>
            </visugpx:TrkExtension>
        </extensions>
      </trkpt>
      <trkpt lat="45.86574" lon="4.46059">
        <ele>470.8</ele>
      </trkpt>
      <trkpt lat="45.86562" lon="4.46059">
        <ele>470</ele>
      </trkpt>
      <trkpt lat="45.86553" lon="4.4606">
        <ele>469.4</ele>
      </trkpt>
      <trkpt lat="45.86525" lon="4.4607">
        <ele>467.8</ele>
      </trkpt>
      <trkpt lat="45.86508" lon="4.46074">
        <ele>466.5</ele>
      </trkpt>
      <trkpt lat="45.86493" lon="4.46077">
        <ele>465.1</ele>
      </trkpt>
      <trkpt lat="45.86449" lon="4.46079">
        <ele>459.2</ele>
      </trkpt>
      <trkpt lat="45.86434" lon="4.46079">
        <ele>457.8</ele>
      </trkpt>
      <trkpt lat="45.8642" lon="4.46078">
        <ele>456.7</ele>
      </trkpt>
      <trkpt lat="45.86395" lon="4.46073">
        <ele>453.5</ele>
      </trkpt>
      <trkpt lat="45.86386" lon="4.46069">
        <ele>452</ele>
      </trkpt>
      <trkpt lat="45.86378" lon="4.46063">
        <ele>450.2</ele>
      </trkpt>
      <trkpt lat="45.86369" lon="4.46059">
        <ele>448.5</ele>
      </trkpt>
      <trkpt lat="45.86361" lon="4.46057">
        <ele>447.1</ele>
      </trkpt>
      <trkpt lat="45.86351" lon="4.46056">
        <ele>445.6</ele>
      </trkpt>
      <trkpt lat="45.86338" lon="4.46057">
        <ele>443.8</ele>
      </trkpt>
      <trkpt lat="45.86324" lon="4.4606">
        <ele>442.5</ele>
      </trkpt>
      <trkpt lat="45.8631" lon="4.46064">
        <ele>441.4</ele>
      </trkpt>
      <trkpt lat="45.86298" lon="4.4607">
        <ele>439.9</ele>
      </trkpt>
      <trkpt lat="45.86287" lon="4.46079">
        <ele>438.5</ele>
      </trkpt>
      <trkpt lat="45.8628" lon="4.46087">
        <ele>438</ele>
      </trkpt>
      <trkpt lat="45.86275" lon="4.46101">
        <ele>438.8</ele>
      </trkpt>
      <trkpt lat="45.86274" lon="4.46096">
        <ele>437.9</ele>
      </trkpt>
      <trkpt lat="45.86273" lon="4.46085">
        <ele>436</ele>
      </trkpt>
      <trkpt lat="45.86276" lon="4.46066">
        <ele>434.6</ele>
      </trkpt>
      <trkpt lat="45.8628" lon="4.46047">
        <ele>433</ele>
        <extensions>
          <visugpx:TrkExtension xmlns:visugpx="https://www.visugpx.com/editgpx/">
            <visugpx:node>5</visugpx:node>
            </visugpx:TrkExtension>
        </extensions>
      </trkpt>
      <trkpt lat="45.86281" lon="4.46041">
        <ele>432.1</ele>
      </trkpt>
      <trkpt lat="45.86289" lon="4.46016">
        <ele>429.5</ele>
      </trkpt>
      <trkpt lat="45.86308" lon="4.45964">
        <ele>424</ele>
      </trkpt>
      <trkpt lat="45.86312" lon="4.45955">
        <ele>423.1</ele>
      </trkpt>
      <trkpt lat="45.86314" lon="4.45952">
        <ele>423</ele>
      </trkpt>
      <trkpt lat="45.86322" lon="4.45942">
        <ele>422.8</ele>
      </trkpt>
      <trkpt lat="45.86326" lon="4.45934">
        <ele>422.8</ele>
      </trkpt>
      <trkpt lat="45.86327" lon="4.45925">
        <ele>422.1</ele>
      </trkpt>
      <trkpt lat="45.86328" lon="4.45923">
        <ele>422</ele>
      </trkpt>
      <trkpt lat="45.86333" lon="4.45911">
        <ele>421.8</ele>
      </trkpt>
      <trkpt lat="45.86347" lon="4.45862">
        <ele>422.5</ele>
      </trkpt>
      <trkpt lat="45.86347" lon="4.45825">
        <ele>420.8</ele>
      </trkpt>
      <trkpt lat="45.86345" lon="4.45786">
        <ele>420.3</ele>
      </trkpt>
      <trkpt lat="45.86345" lon="4.45765">
        <ele>420.1</ele>
      </trkpt>
      <trkpt lat="45.86344" lon="4.45762">
        <ele>419.9</ele>
      </trkpt>
      <trkpt lat="45.86337" lon="4.45752">
        <ele>419.3</ele>
      </trkpt>
      <trkpt lat="45.86322" lon="4.45726">
        <ele>423.1</ele>
      </trkpt>
      <trkpt lat="45.86322" lon="4.45723">
        <ele>423.4</ele>
      </trkpt>
      <trkpt lat="45.8632" lon="4.45719">
        <ele>424.3</ele>
      </trkpt>
      <trkpt lat="45.86319" lon="4.45712">
        <ele>425.4</ele>
      </trkpt>
      <trkpt lat="45.86319" lon="4.45709">
        <ele>425.8</ele>
      </trkpt>
      <trkpt lat="45.86319" lon="4.45706">
        <ele>426.2</ele>
      </trkpt>
      <trkpt lat="45.86319" lon="4.45684">
        <ele>429</ele>
      </trkpt>
      <trkpt lat="45.86336" lon="4.4559">
        <ele>431.8</ele>
      </trkpt>
      <trkpt lat="45.86339" lon="4.45559">
        <ele>432.9</ele>
      </trkpt>
      <trkpt lat="45.86339" lon="4.45533">
        <ele>434</ele>
      </trkpt>
      <trkpt lat="45.86338" lon="4.45516">
        <ele>434.6</ele>
      </trkpt>
      <trkpt lat="45.86335" lon="4.45494">
        <ele>435.5</ele>
      </trkpt>
      <trkpt lat="45.8633" lon="4.45475">
        <ele>437.7</ele>
      </trkpt>
      <trkpt lat="45.86326" lon="4.45463">
        <ele>439.7</ele>
      </trkpt>
      <trkpt lat="45.86319" lon="4.45439">
        <ele>443.1</ele>
      </trkpt>
      <trkpt lat="45.86308" lon="4.45402">
        <ele>447.4</ele>
      </trkpt>
      <trkpt lat="45.863" lon="4.4538">
        <ele>450.5</ele>
      </trkpt>
      <trkpt lat="45.86291" lon="4.45347">
        <ele>453.6</ele>
      </trkpt>
      <trkpt lat="45.8628" lon="4.45305">
        <ele>456.8</ele>
      </trkpt>
      <trkpt lat="45.86268" lon="4.4527">
        <ele>460.8</ele>
      </trkpt>
      <trkpt lat="45.86255" lon="4.45249">
        <ele>465.9</ele>
      </trkpt>
      <trkpt lat="45.8624" lon="4.45225">
        <ele>469.9</ele>
      </trkpt>
      <trkpt lat="45.86202" lon="4.45175">
        <ele>477.8</ele>
      </trkpt>
      <trkpt lat="45.86171" lon="4.45134">
        <ele>482.2</ele>
      </trkpt>
      <trkpt lat="45.86132" lon="4.4508">
        <ele>487.8</ele>
      </trkpt>
      <trkpt lat="45.86115" lon="4.45059">
        <ele>490.9</ele>
      </trkpt>
      <trkpt lat="45.86106" lon="4.45047">
        <ele>492.4</ele>
      </trkpt>
      <trkpt lat="45.86081" lon="4.45028">
        <ele>498.8</ele>
      </trkpt>
      <trkpt lat="45.86072" lon="4.45021">
        <ele>500.5</ele>
      </trkpt>
      <trkpt lat="45.86061" lon="4.45004">
        <ele>501</ele>
      </trkpt>
      <trkpt lat="45.86058" lon="4.45001">
        <ele>501.4</ele>
      </trkpt>
      <trkpt lat="45.8605" lon="4.44994">
        <ele>502.1</ele>
      </trkpt>
      <trkpt lat="45.86034" lon="4.44985">
        <ele>504.4</ele>
      </trkpt>
      <trkpt lat="45.86012" lon="4.44972">
        <ele>507.5</ele>
      </trkpt>
      <trkpt lat="45.85996" lon="4.44967">
        <ele>510.2</ele>
      </trkpt>
      <trkpt lat="45.85953" lon="4.44965">
        <ele>515.7</ele>
      </trkpt>
      <trkpt lat="45.85932" lon="4.44968">
        <ele>518.6</ele>
      </trkpt>
      <trkpt lat="45.85902" lon="4.44975">
        <ele>523.5</ele>
      </trkpt>
      <trkpt lat="45.85893" lon="4.44982">
        <ele>526.8</ele>
      </trkpt>
      <trkpt lat="45.85863" lon="4.44979">
        <ele>531.8</ele>
      </trkpt>
      <trkpt lat="45.85857" lon="4.44976">
        <ele>533</ele>
      </trkpt>
      <trkpt lat="45.85851" lon="4.44973">
        <ele>534.4</ele>
      </trkpt>
      <trkpt lat="45.85844" lon="4.44965">
        <ele>536.4</ele>
      </trkpt>
      <trkpt lat="45.85841" lon="4.44957">
        <ele>537.5</ele>
      </trkpt>
      <trkpt lat="45.85839" lon="4.4495">
        <ele>538.3</ele>
        <extensions>
          <visugpx:TrkExtension xmlns:visugpx="https://www.visugpx.com/editgpx/">
            <visugpx:node>6</visugpx:node>
            </visugpx:TrkExtension>
        </extensions>
      </trkpt>
      <trkpt lat="45.85838" lon="4.44946">
        <ele>538.8</ele>
      </trkpt>
      <trkpt lat="45.85837" lon="4.44937">
        <ele>539.5</ele>
      </trkpt>
      <trkpt lat="45.85838" lon="4.44924">
        <ele>539.4</ele>
      </trkpt>
      <trkpt lat="45.85839" lon="4.44909">
        <ele>539.2</ele>
      </trkpt>
      <trkpt lat="45.8584" lon="4.44896">
        <ele>538.8</ele>
      </trkpt>
      <trkpt lat="45.85839" lon="4.44884">
        <ele>539.5</ele>
      </trkpt>
      <trkpt lat="45.85838" lon="4.44874">
        <ele>540.4</ele>
      </trkpt>
      <trkpt lat="45.85836" lon="4.44855">
        <ele>541.6</ele>
      </trkpt>
      <trkpt lat="45.85833" lon="4.44847">
        <ele>542.6</ele>
      </trkpt>
      <trkpt lat="45.85826" lon="4.4483">
        <ele>545</ele>
      </trkpt>
      <trkpt lat="45.85813" lon="4.44799">
        <ele>548.6</ele>
      </trkpt>
      <trkpt lat="45.85804" lon="4.4477">
        <ele>550.4</ele>
      </trkpt>
      <trkpt lat="45.85798" lon="4.44743">
        <ele>551.5</ele>
      </trkpt>
      <trkpt lat="45.85793" lon="4.44731">
        <ele>552.6</ele>
      </trkpt>
      <trkpt lat="45.8577" lon="4.44686">
        <ele>557.7</ele>
      </trkpt>
      <trkpt lat="45.85756" lon="4.44654">
        <ele>560.9</ele>
      </trkpt>
      <trkpt lat="45.85746" lon="4.44624">
        <ele>563.2</ele>
      </trkpt>
      <trkpt lat="45.85743" lon="4.44618">
        <ele>564.3</ele>
      </trkpt>
      <trkpt lat="45.8574" lon="4.44617">
        <ele>565.5</ele>
      </trkpt>
      <trkpt lat="45.85736" lon="4.44597">
        <ele>567</ele>
      </trkpt>
      <trkpt lat="45.85734" lon="4.44579">
        <ele>568</ele>
      </trkpt>
      <trkpt lat="45.85734" lon="4.4451">
        <ele>570.7</ele>
      </trkpt>
      <trkpt lat="45.85733" lon="4.44492">
        <ele>571.6</ele>
      </trkpt>
      <trkpt lat="45.85727" lon="4.4445">
        <ele>573.8</ele>
      </trkpt>
      <trkpt lat="45.85712" lon="4.44363">
        <ele>575.3</ele>
      </trkpt>
      <trkpt lat="45.85705" lon="4.44333">
        <ele>576.7</ele>
      </trkpt>
      <trkpt lat="45.85675" lon="4.44158">
        <ele>583.8</ele>
      </trkpt>
      <trkpt lat="45.85656" lon="4.44081">
        <ele>589.2</ele>
      </trkpt>
      <trkpt lat="45.85645" lon="4.44045">
        <ele>591</ele>
      </trkpt>
      <trkpt lat="45.85634" lon="4.44019">
        <ele>593.4</ele>
      </trkpt>
      <trkpt lat="45.85625" lon="4.44004">
        <ele>595.6</ele>
      </trkpt>
      <trkpt lat="45.85606" lon="4.43979">
        <ele>599.2</ele>
      </trkpt>
      <trkpt lat="45.85598" lon="4.43971">
        <ele>600.5</ele>
      </trkpt>
      <trkpt lat="45.85573" lon="4.43954">
        <ele>605.3</ele>
      </trkpt>
      <trkpt lat="45.85515" lon="4.43925">
        <ele>612</ele>
      </trkpt>
      <trkpt lat="45.85496" lon="4.43917">
        <ele>613.8</ele>
      </trkpt>
      <trkpt lat="45.85474" lon="4.43913">
        <ele>616.8</ele>
      </trkpt>
      <trkpt lat="45.85465" lon="4.43876">
        <ele>609.4</ele>
      </trkpt>
      <trkpt lat="45.85457" lon="4.43862">
        <ele>607.4</ele>
      </trkpt>
      <trkpt lat="45.85449" lon="4.43854">
        <ele>606.8</ele>
      </trkpt>
      <trkpt lat="45.85446" lon="4.43851">
        <ele>606.6</ele>
      </trkpt>
      <trkpt lat="45.85434" lon="4.43838">
        <ele>605.5</ele>
      </trkpt>
      <trkpt lat="45.85397" lon="4.43802">
        <ele>602.1</ele>
      </trkpt>
      <trkpt lat="45.85379" lon="4.43787">
        <ele>601.4</ele>
      </trkpt>
      <trkpt lat="45.85372" lon="4.43779">
        <ele>600.7</ele>
      </trkpt>
      <trkpt lat="45.8537" lon="4.43776">
        <ele>600.3</ele>
        <extensions>
          <visugpx:TrkExtension xmlns:visugpx="https://www.visugpx.com/editgpx/">
            <visugpx:node>8</visugpx:node>
            </visugpx:TrkExtension>
        </extensions>
      </trkpt>
    </trkseg>
  </trk>
</gpx>